Terminal Aerodrome Forecast
Issued by NWS Tampa Bay Area, FL

Home | Current Version | Previous Version | Text Only | Print | Product List | Glossary On
Versions: 1 2 3 4 5 6 7 8 9 10 11 12 13 14 15 16 17 18 19
000
FTUS42 KTBW 232300
TAFSRQ
TAF
KSRQ 232336Z 2400/2424 VRB03KT P6SM VCSH SCT025 BKN060
     FM240600 05004KT P6SM FEW015 SCT025 BKN150
     FM241500 07005KT P6SM VCSH FEW025 SCT050 BKN090
     FM241800 VRB06KT P6SM VCTS SCT025CB BKN050=

USA.gov is the U.S. government's official web portal to all federal, state and local government web resources and services.